createdAt,value
2022-12-17T00:01:43.715Z,94676.73
2022-12-17T00:04:10.124Z,94644.06
2022-12-17T00:06:36.448Z,94654.84
2022-12-17T00:09:02.795Z,94661.42
2022-12-17T00:11:29.181Z,94645.97
2022-12-17T00:13:55.526Z,94653.34
2022-12-17T00:16:22.014Z,94632.88
2022-12-17T00:18:48.279Z,94658.28
2022-12-17T00:21:14.656Z,94633.81
2022-12-17T00:23:40.997Z,94638.96
2022-12-17T00:26:07.384Z,94623.51
2022-12-17T00:28:33.738Z,94652.19
2022-12-17T00:31:00.198Z,94639.89
2022-12-17T00:33:26.478Z,94616.86
2022-12-17T00:35:52.902Z,94645.77
2022-12-17T00:38:19.238Z,94620.84
2022-12-17T00:40:45.622Z,94635.97
2022-12-17T00:43:11.967Z,94628.30
2022-12-17T00:45:38.357Z,94618.61
2022-12-17T00:48:04.710Z,94625.16
2022-12-17T00:50:33.503Z,94622.13
2022-12-17T00:52:59.842Z,94623.55
2022-12-17T00:55:26.259Z,94617.58
2022-12-17T00:57:52.596Z,94632.22
2022-12-17T01:00:18.987Z,94605.99
2022-12-17T01:02:45.479Z,94624.48
2022-12-17T01:05:11.758Z,94596.30
2022-12-17T01:07:38.099Z,94621.55
2022-12-17T01:10:04.486Z,94620.27
2022-12-17T01:12:30.838Z,94611.40
2022-12-17T01:14:57.214Z,94624.95
2022-12-17T01:17:23.554Z,94621.91
2022-12-17T01:19:49.938Z,94631.53
2022-12-17T01:22:17.473Z,94618.19
2022-12-17T01:24:42.683Z,94620.87
2022-12-17T01:27:09.026Z,94621.14
2022-12-17T01:29:35.418Z,94631.19
2022-12-17T01:32:01.799Z,94615.38
2022-12-17T01:34:28.176Z,94633.87
2022-12-17T01:36:54.587Z,94619.23
2022-12-17T01:39:20.997Z,94635.09
2022-12-17T01:41:48.568Z,94607.59
2022-12-17T01:44:13.762Z,94637.77
2022-12-17T01:46:40.104Z,94632.77
2022-12-17T01:49:07.741Z,94634.17
2022-12-17T01:51:32.846Z,94625.05
2022-12-17T01:53:59.229Z,94640.81
2022-12-17T01:56:25.569Z,94623.41
2022-12-17T01:58:51.959Z,94647.25
2022-12-17T02:01:18.402Z,94606.78
2022-12-17T02:03:44.690Z,94640.96
2022-12-17T02:06:11.035Z,94646.58
2022-12-17T02:08:37.426Z,94626.58
2022-12-17T02:11:03.768Z,94625.52
2022-12-17T02:13:30.162Z,94637.92
2022-12-17T02:15:56.526Z,94629.84
2022-12-17T02:18:22.950Z,94612.42
2022-12-17T02:20:49.266Z,94620.22
2022-12-17T02:23:15.662Z,94615.93
2022-12-17T02:25:42.061Z,94603.41
2022-12-17T02:28:08.454Z,94611.60
2022-12-17T02:30:34.804Z,94609.49
2022-12-17T02:33:01.191Z,94610.99
2022-12-17T02:35:27.534Z,94604.70
2022-12-17T02:37:53.952Z,94619.65
2022-12-17T02:40:20.298Z,94609.03
2022-12-17T02:42:46.705Z,94607.28
2022-12-17T02:45:13.049Z,94595.69
2022-12-17T02:47:39.430Z,94580.35
2022-12-17T02:52:51.087Z,94594.72
2022-12-17T02:55:17.436Z,94579.42
2022-12-17T02:57:44.656Z,94588.89
2022-12-17T03:00:10.181Z,94583.75
2022-12-17T03:02:36.781Z,94570.98
2022-12-17T03:05:15.238Z,94556.36
2022-12-17T03:07:29.327Z,94564.08
2022-12-17T03:09:55.663Z,94556.83
2022-12-17T03:12:22.050Z,94540.59
2022-12-17T03:14:48.399Z,94540.91
2022-12-17T03:17:14.852Z,94543.02
2022-12-17T03:19:41.152Z,94551.92
2022-12-17T03:22:07.571Z,94545.95
2022-12-17T03:24:33.910Z,94551.20
2022-12-17T03:27:00.290Z,94514.34
2022-12-17T03:29:26.636Z,94541.27
2022-12-17T03:31:53.029Z,94531.08
2022-12-17T03:34:19.373Z,94533.66
2022-12-17T03:36:45.761Z,94524.53
2022-12-17T03:39:12.104Z,94532.72
2022-12-17T03:41:38.494Z,94536.73
2022-12-17T03:44:04.838Z,94539.16
2022-12-17T03:46:31.352Z,94551.56
2022-12-17T03:48:57.570Z,94548.05
2022-12-17T03:51:23.953Z,94528.77
2022-12-17T03:53:50.298Z,94546.67
2022-12-17T03:56:16.719Z,94528.30
2022-12-17T03:58:43.065Z,94551.35
2022-12-17T04:01:09.513Z,94547.05
2022-12-17T04:03:36.303Z,94524.44
2022-12-17T04:06:02.267Z,94539.53
2022-12-17T04:08:28.602Z,94528.09
2022-12-17T04:10:54.999Z,94567.38
2022-12-17T04:13:21.387Z,94520.22
2022-12-17T04:15:47.742Z,94577.56
2022-12-17T04:18:14.094Z,94533.59
2022-12-17T04:20:40.479Z,94545.29
2022-12-17T04:23:06.820Z,94564.95
2022-12-17T04:25:33.206Z,94551.61
2022-12-17T04:27:59.578Z,94572.06
2022-12-17T04:30:26.057Z,94583.44
2022-12-17T04:32:52.395Z,94561.55
2022-12-17T04:35:18.780Z,94563.45
2022-12-17T04:37:45.124Z,94579.69
2022-12-17T04:40:11.521Z,94542.97
2022-12-17T04:42:37.867Z,94567.33
2022-12-17T04:45:04.254Z,94585.34
2022-12-17T04:47:30.594Z,94567.33
2022-12-17T04:49:57.004Z,94572.27
2022-12-17T04:52:23.348Z,94571.66
2022-12-17T04:54:49.772Z,94602.44
2022-12-17T04:57:16.080Z,94584.52
2022-12-17T04:59:42.475Z,94604.66
2022-12-17T05:02:08.927Z,94600.47
2022-12-17T05:04:35.232Z,94599.04
2022-12-17T05:07:01.560Z,94607.84
2022-12-17T05:09:27.947Z,94603.05
2022-12-17T05:11:54.295Z,94632.75
2022-12-17T05:14:20.678Z,94621.53
2022-12-17T05:16:47.056Z,94633.11
2022-12-17T05:19:13.444Z,94629.72
2022-12-17T05:21:39.786Z,94640.62
2022-12-17T05:24:06.172Z,94647.98
2022-12-17T05:26:32.517Z,94635.94
2022-12-17T05:28:58.911Z,94647.52
2022-12-17T05:31:25.303Z,94651.38
2022-12-17T05:33:51.675Z,94651.14
2022-12-17T05:36:18.011Z,94635.58
2022-12-17T05:38:44.416Z,94647.98
2022-12-17T05:41:10.760Z,94665.19
2022-12-17T05:43:37.501Z,94658.28
2022-12-17T05:46:03.562Z,94646.23
2022-12-17T05:48:29.869Z,94658.28
2022-12-17T05:50:56.212Z,94635.58
2022-12-17T05:53:22.597Z,94647.52
2022-12-17T05:55:48.943Z,94630.44
2022-12-17T05:58:15.344Z,94632.19
2022-12-17T06:00:41.684Z,94636.87
2022-12-17T06:03:08.176Z,94637.69
2022-12-17T06:05:34.415Z,94637.48
2022-12-17T06:08:00.808Z,94623.53
2022-12-17T06:10:27.160Z,94624.72
2022-12-17T06:12:53.542Z,94619.78
2022-12-17T06:15:19.884Z,94626.57
2022-12-17T06:17:46.271Z,94637.94
2022-12-17T06:20:12.627Z,94645.66
2022-12-17T06:22:39.009Z,94644.23
2022-12-17T06:25:05.356Z,94647.99
2022-12-17T06:27:31.752Z,94652.56
2022-12-17T06:29:58.131Z,94661.58
2022-12-17T06:32:24.465Z,94681.45
2022-12-17T06:34:50.865Z,94675.48
2022-12-17T06:37:17.208Z,94699.36
2022-12-17T06:39:43.593Z,94697.14
2022-12-17T06:42:09.932Z,94693.74
2022-12-17T06:44:36.313Z,94697.84
2022-12-17T06:47:02.774Z,94724.41
2022-12-17T06:49:29.046Z,94720.44
2022-12-17T06:51:55.395Z,94705.46
2022-12-17T06:54:21.780Z,94707.67
2022-12-17T06:56:48.122Z,94690.38
2022-12-17T06:59:14.510Z,94659.22
2022-12-17T07:01:41.047Z,94713.89
2022-12-17T07:04:07.248Z,94727.22
2022-12-17T07:06:33.597Z,94731.08
2022-12-17T07:09:00.014Z,94737.52
2022-12-17T07:11:26.371Z,94743.13
2022-12-17T07:13:52.741Z,94764.17
2022-12-17T07:16:19.120Z,94792.02
2022-12-17T07:18:46.463Z,94834.15
2022-12-17T07:21:11.815Z,94846.05
2022-12-17T07:23:38.839Z,94870.27
2022-12-17T07:26:04.539Z,94868.29
2022-12-17T07:28:30.924Z,94881.02
2022-12-17T07:30:57.264Z,94869.44
2022-12-17T07:33:23.654Z,94873.44
2022-12-17T07:35:50.031Z,94861.03
2022-12-17T07:38:16.719Z,94806.09
2022-12-17T07:40:43.062Z,94827.46
2022-12-17T07:43:09.443Z,94808.16
2022-12-17T07:45:35.873Z,94858.46
2022-12-17T07:48:02.231Z,94859.52
2022-12-17T07:50:28.566Z,94877.17
2022-12-17T07:52:54.952Z,94837.89
2022-12-17T07:55:21.295Z,94794.71
2022-12-17T07:57:47.980Z,94803.25
2022-12-17T08:00:14.326Z,94784.92
2022-12-17T08:02:40.828Z,94738.93
2022-12-17T08:05:07.062Z,94723.85
2022-12-17T08:07:33.511Z,94717.42
2022-12-17T08:09:59.850Z,94707.02
2022-12-17T08:12:26.242Z,94692.05
2022-12-17T08:14:52.600Z,94706.44
2022-12-17T08:17:18.979Z,94655.31
2022-12-17T08:19:45.321Z,94662.20
2022-12-17T08:22:11.710Z,94656.95
2022-12-17T08:24:38.113Z,94674.14
2022-12-17T08:27:04.498Z,94710.98
2022-12-17T08:29:30.838Z,94732.61
2022-12-17T08:31:58.885Z,94751.31
2022-12-17T08:34:24.778Z,94786.16
2022-12-17T08:36:49.966Z,94779.05
2022-12-17T08:39:16.424Z,94753.09
2022-12-17T08:41:42.804Z,94731.44
2022-12-17T08:44:09.151Z,94736.56
2022-12-17T08:46:35.655Z,94733.74
2022-12-17T08:49:01.964Z,94739.11
2022-12-17T08:51:28.368Z,94766.38
2022-12-17T08:53:54.714Z,94766.03
2022-12-17T08:56:21.096Z,94787.69
2022-12-17T08:58:47.438Z,94813.30
2022-12-17T09:01:13.920Z,94840.22
2022-12-17T09:03:40.663Z,94853.09
2022-12-17T09:06:06.560Z,94856.48
2022-12-17T09:08:32.902Z,94856.35
2022-12-17T09:10:59.284Z,94851.20
2022-12-17T09:13:25.629Z,94861.03
2022-12-17T09:15:52.030Z,94856.71
2022-12-17T09:18:18.365Z,94854.27
2022-12-17T09:20:44.761Z,94841.04
2022-12-17T09:23:11.105Z,94838.33
2022-12-17T09:25:37.501Z,94840.58
2022-12-17T09:28:03.883Z,94851.34
2022-12-17T09:30:30.326Z,94878.37
2022-12-17T09:32:56.620Z,94890.05
2022-12-17T09:35:23.002Z,94887.73
2022-12-17T09:37:49.341Z,94877.91
2022-12-17T09:40:15.772Z,94872.17
2022-12-17T09:42:46.744Z,94870.75
2022-12-17T09:45:08.526Z,94873.69
2022-12-17T09:47:34.912Z,94875.56
2022-12-17T09:50:01.294Z,94885.04
2022-12-17T09:52:27.669Z,94877.78
2022-12-17T09:54:59.317Z,94889.00
2022-12-17T09:57:20.393Z,94886.43
2022-12-17T09:59:46.782Z,94888.15
2022-12-17T10:02:13.339Z,94891.78
2022-12-17T10:04:39.522Z,94881.95
2022-12-17T10:07:05.866Z,94891.78
2022-12-17T10:09:32.243Z,94884.53
2022-12-17T10:11:58.581Z,94874.73
2022-12-17T10:14:24.994Z,94859.75
2022-12-17T10:16:51.340Z,94875.52
2022-12-17T10:19:17.734Z,94877.30
2022-12-17T10:21:44.071Z,94892.15
2022-12-17T10:24:15.438Z,94881.85
2022-12-17T10:26:36.804Z,94890.96
2022-12-17T10:29:03.193Z,94905.94
2022-12-17T10:31:29.588Z,94907.95
2022-12-17T10:33:55.916Z,94903.59
2022-12-17T10:36:22.262Z,94934.48
2022-12-17T10:38:48.683Z,94943.28
2022-12-17T10:41:15.011Z,94946.00
2022-12-17T10:43:43.040Z,94954.55
2022-12-17T10:46:09.022Z,94962.00
2022-12-17T10:48:34.115Z,94925.86
2022-12-17T10:51:00.461Z,94927.05
2022-12-17T10:53:26.853Z,94918.38
2022-12-17T10:55:53.192Z,94903.16
2022-12-17T10:58:19.573Z,94904.09
2022-12-17T11:00:50.121Z,94892.97
2022-12-17T11:03:12.399Z,94910.16
2022-12-17T11:05:38.681Z,94909.25
2022-12-17T11:08:05.074Z,94899.19
2022-12-17T11:10:31.411Z,94871.10
2022-12-17T11:12:57.823Z,94869.89
2022-12-17T11:15:24.194Z,94882.28
2022-12-17T11:17:50.579Z,94878.08
2022-12-17T11:20:16.922Z,94884.97
2022-12-17T11:22:43.303Z,94883.02
2022-12-17T11:25:09.647Z,94874.61
2022-12-17T11:27:36.045Z,94870.52
2022-12-17T11:30:02.489Z,94864.91
2022-12-17T11:32:28.871Z,94846.41
2022-12-17T11:34:55.214Z,94842.53
2022-12-17T11:37:21.596Z,94845.70
2022-12-17T11:39:47.936Z,94837.27
2022-12-17T11:42:14.336Z,94846.86
2022-12-17T11:44:40.681Z,94848.86
2022-12-17T11:47:07.072Z,94856.13
2022-12-17T11:49:33.470Z,94862.20
2022-12-17T11:51:59.881Z,94875.55
2022-12-17T11:54:26.225Z,94884.68
2022-12-17T11:56:52.613Z,94901.16
2022-12-17T11:59:18.963Z,94921.06
2022-12-17T12:01:45.397Z,94929.84
2022-12-17T12:04:11.793Z,94908.89
2022-12-17T12:06:38.108Z,94910.08
2022-12-17T12:09:04.456Z,94918.73
2022-12-17T12:11:31.968Z,94921.61
2022-12-17T12:13:57.178Z,94926.43
2022-12-17T12:16:23.652Z,94916.39
2022-12-17T12:18:49.902Z,94918.34
2022-12-17T12:21:16.287Z,94909.34
2022-12-17T12:23:42.642Z,94907.23
2022-12-17T12:26:09.019Z,94941.52
2022-12-17T12:28:35.740Z,94928.78
2022-12-17T12:31:01.759Z,94920.80
2022-12-17T12:33:28.092Z,94921.84
2022-12-17T12:35:54.478Z,94917.34
2022-12-17T12:38:20.849Z,94917.77
2022-12-17T12:40:47.252Z,94911.36
2022-12-17T12:43:13.599Z,94913.21
2022-12-17T12:45:40.043Z,94909.00
2022-12-17T12:48:07.536Z,94905.86
2022-12-17T12:50:32.726Z,94909.70
2022-12-17T12:52:59.066Z,94900.81
2022-12-17T12:55:25.459Z,94901.16
2022-12-17T12:57:51.801Z,94912.53
2022-12-17T13:00:18.214Z,94911.13
2022-12-17T13:02:44.699Z,94900.61
2022-12-17T13:05:10.939Z,94900.59
2022-12-17T13:07:37.276Z,94909.02
2022-12-17T13:10:03.671Z,94910.91
2022-12-17T13:12:30.016Z,94912.04
2022-12-17T13:14:56.424Z,94903.87
2022-12-17T13:17:22.758Z,94899.66
2022-12-17T13:19:49.158Z,94914.03
2022-12-17T13:22:21.740Z,94916.14
2022-12-17T13:24:41.902Z,94917.79
2022-12-17T13:27:10.424Z,94912.30
2022-12-17T13:29:36.849Z,94905.52
2022-12-17T13:32:03.213Z,94911.81
2022-12-17T13:34:29.541Z,94930.44
2022-12-17T13:36:55.888Z,94939.31
2022-12-17T13:39:22.271Z,94941.80
2022-12-17T13:41:48.647Z,94928.09
2022-12-17T13:44:15.028Z,94926.91
2022-12-17T13:46:46.662Z,94936.15
2022-12-17T13:49:07.754Z,94937.58
2022-12-17T13:51:34.095Z,94933.35
2022-12-17T13:54:00.487Z,94927.38
2022-12-17T13:56:26.884Z,94937.05
2022-12-17T13:58:53.247Z,94944.25
2022-12-17T14:01:19.873Z,94943.49
2022-12-17T14:06:12.365Z,94950.31
2022-12-17T14:08:39.134Z,94949.59
2022-12-17T14:11:06.716Z,94954.64
2022-12-17T14:13:31.473Z,94957.80
2022-12-17T14:15:57.824Z,94962.95
2022-12-17T14:18:24.222Z,94964.14
2022-12-17T14:20:51.774Z,94966.24
2022-12-17T14:23:16.959Z,94959.68
2022-12-17T14:25:43.299Z,94961.33
2022-12-17T14:28:09.760Z,94972.19
2022-12-17T14:30:36.140Z,94982.84
2022-12-17T14:33:02.544Z,94974.77
2022-12-17T14:35:28.939Z,94976.55
2022-12-17T14:37:55.333Z,94988.92
2022-12-17T14:40:21.679Z,94968.83
2022-12-17T14:42:48.062Z,94959.91
2022-12-17T14:45:14.408Z,94985.89
2022-12-17T14:47:40.804Z,94989.29
2022-12-17T14:50:07.144Z,94970.52
2022-12-17T14:52:33.526Z,94961.17
2022-12-17T14:54:59.867Z,94994.64
2022-12-17T14:57:26.268Z,95008.57
2022-12-17T14:59:52.621Z,95005.63
2022-12-17T15:02:19.084Z,94983.63
2022-12-17T15:04:45.341Z,94989.14
2022-12-17T15:07:17.585Z,95005.50
2022-12-17T15:09:38.070Z,95017.34
2022-12-17T15:12:04.463Z,95005.27
2022-12-17T15:14:30.819Z,94994.54
2022-12-17T15:16:57.228Z,94997.94
2022-12-17T15:19:23.538Z,95004.73
2022-12-17T15:21:49.917Z,95021.70
2022-12-17T15:24:16.262Z,95023.81
2022-12-17T15:26:42.654Z,95024.27
2022-12-17T15:29:09.001Z,95019.13
2022-12-17T15:31:35.943Z,95032.82
2022-12-17T15:34:01.727Z,95037.97
2022-12-17T15:36:28.111Z,95041.37
2022-12-17T15:38:54.461Z,95036.69
2022-12-17T15:41:20.857Z,95035.39
2022-12-17T15:43:47.305Z,95034.94
2022-12-17T15:46:13.745Z,95024.27
2022-12-17T15:48:44.806Z,95030.81
2022-12-17T15:51:06.449Z,95051.30
2022-12-17T15:53:32.791Z,95055.86
2022-12-17T15:55:59.177Z,95033.74
2022-12-17T15:58:25.538Z,95027.20
2022-12-17T16:00:51.960Z,95036.69
2022-12-17T16:03:18.335Z,95043.94
2022-12-17T16:05:44.682Z,95040.54
2022-12-17T16:08:11.024Z,95037.61
2022-12-17T16:10:37.402Z,95049.09
2022-12-17T16:13:03.744Z,95046.52
2022-12-17T16:15:30.156Z,95044.41
2022-12-17T16:17:56.470Z,95062.42
2022-12-17T16:20:22.860Z,95071.80
2022-12-17T16:22:49.208Z,95071.44
2022-12-17T16:25:15.594Z,95077.73
2022-12-17T16:27:41.936Z,95079.62
2022-12-17T16:30:08.331Z,95078.56
2022-12-17T16:32:36.690Z,95087.24
2022-12-17T16:35:01.075Z,95091.11
2022-12-17T16:37:27.421Z,95093.31
2022-12-17T16:39:59.737Z,95105.27
2022-12-17T16:42:20.161Z,95101.04
2022-12-17T16:44:46.542Z,95098.92
2022-12-17T16:47:12.917Z,95105.72
2022-12-17T16:49:39.306Z,95112.62
2022-12-17T16:52:05.648Z,95116.95
2022-12-17T16:54:32.049Z,95118.59
2022-12-17T16:56:58.444Z,95114.84
2022-12-17T16:59:24.781Z,95120.34
2022-12-17T17:01:51.242Z,95113.68
2022-12-17T17:04:17.522Z,95114.47
2022-12-17T17:06:43.920Z,95124.44
2022-12-17T17:09:10.253Z,95126.05
2022-12-17T17:11:36.633Z,95123.61
2022-12-17T17:14:03.011Z,95134.60
2022-12-17T17:16:29.437Z,95136.84
2022-12-17T17:18:55.785Z,95138.23
2022-12-17T17:21:22.167Z,95138.23
2022-12-17T17:23:48.511Z,95135.66
2022-12-17T17:26:14.931Z,95145.55
2022-12-17T17:28:41.275Z,95150.27
2022-12-17T17:31:07.728Z,95154.14
2022-12-17T17:33:35.206Z,95153.67
2022-12-17T17:36:04.002Z,95158.00
2022-12-17T17:38:28.691Z,95159.72
2022-12-17T17:40:53.123Z,95162.42
2022-12-17T17:43:19.465Z,95164.53
2022-12-17T17:45:45.845Z,95169.22
2022-12-17T17:48:12.188Z,95170.97
2022-12-17T17:50:38.630Z,95167.66
2022-12-17T17:53:04.978Z,95170.60
2022-12-17T17:55:31.367Z,95181.03
2022-12-17T17:57:57.710Z,95180.90
2022-12-17T18:00:24.131Z,95177.86
2022-12-17T18:02:50.682Z,95181.82
2022-12-17T18:05:16.887Z,95182.19
2022-12-17T18:07:43.219Z,95193.41
2022-12-17T18:10:10.555Z,95197.63
2022-12-17T18:12:35.986Z,95201.95
2022-12-17T18:15:18.701Z,95206.27
2022-12-17T18:17:28.715Z,95215.64
2022-12-17T18:19:55.098Z,95215.77
2022-12-17T18:22:21.436Z,95221.72
2022-12-17T18:24:47.827Z,95221.38
2022-12-17T18:27:14.172Z,95228.16
2022-12-17T18:29:40.553Z,95224.42
2022-12-17T18:32:06.951Z,95227.81
2022-12-17T18:34:33.302Z,95235.55
2022-12-17T18:36:59.622Z,95245.02
2022-12-17T18:39:26.010Z,95248.88
2022-12-17T18:41:52.383Z,95258.70
2022-12-17T18:44:18.767Z,95257.15
2022-12-17T18:46:45.166Z,95252.00
2022-12-17T18:49:11.534Z,95256.69
2022-12-17T18:51:37.870Z,95267.35
2022-12-17T18:54:04.265Z,95269.22
2022-12-17T18:56:59.437Z,95279.39
2022-12-17T18:58:56.996Z,95289.33
2022-12-17T19:01:23.458Z,95287.11
2022-12-17T19:03:49.724Z,95299.98
2022-12-17T19:06:16.062Z,95300.91
2022-12-17T19:08:42.450Z,95302.31
2022-12-17T19:11:08.827Z,95310.87
2022-12-17T19:13:35.227Z,95319.88
2022-12-17T19:16:01.676Z,95331.45
2022-12-17T19:18:27.991Z,95329.72
2022-12-17T19:20:54.330Z,95334.49
2022-12-17T19:23:20.714Z,95338.81
2022-12-17T19:25:47.057Z,95337.06
2022-12-17T19:28:13.526Z,95341.51
2022-12-17T19:30:39.867Z,95335.53
2022-12-17T19:33:06.265Z,95339.73
2022-12-17T19:35:32.637Z,95340.22
2022-12-17T19:37:59.019Z,95349.23
2022-12-17T19:40:25.364Z,95346.66
2022-12-17T19:42:51.757Z,95346.66
2022-12-17T19:45:18.095Z,95352.27
2022-12-17T19:47:44.480Z,95347.95
2022-12-17T19:50:10.836Z,95339.48
2022-12-17T19:52:37.216Z,95346.05
2022-12-17T19:55:03.556Z,95347.34
2022-12-17T19:57:29.947Z,95346.84
2022-12-17T19:59:56.294Z,95347.67
2022-12-17T20:02:23.544Z,95355.76
2022-12-17T20:04:49.025Z,95362.28
2022-12-17T20:07:15.400Z,95361.83
2022-12-17T20:09:41.741Z,95366.73
2022-12-17T20:12:08.140Z,95373.53
2022-12-17T20:14:34.471Z,95375.64
2022-12-17T20:17:00.895Z,95376.93
2022-12-17T20:19:27.202Z,95381.80
2022-12-17T20:21:53.592Z,95390.59
2022-12-17T20:24:19.929Z,95395.87
2022-12-17T20:26:46.349Z,95402.17
2022-12-17T20:29:12.682Z,95401.02
2022-12-17T20:31:39.166Z,95400.89
2022-12-17T20:34:05.472Z,95400.09
2022-12-17T20:36:31.860Z,95404.41
2022-12-17T20:38:58.210Z,95408.28
2022-12-17T20:41:24.600Z,95408.83
2022-12-17T20:43:50.969Z,95409.19
2022-12-17T20:46:17.431Z,95412.69
2022-12-17T20:48:43.699Z,95411.40
2022-12-17T20:51:10.104Z,95416.55
2022-12-17T20:53:36.449Z,95423.47
2022-12-17T20:56:02.834Z,95429.78
2022-12-17T20:58:29.180Z,95425.47
2022-12-17T21:00:55.600Z,95430.36
2022-12-17T21:03:21.989Z,95432.94
2022-12-17T21:05:48.317Z,95441.95
2022-12-17T21:08:14.657Z,95439.46
2022-12-17T21:10:41.055Z,95440.29
2022-12-17T21:13:07.394Z,95445.34
2022-12-17T21:15:33.782Z,95443.23
2022-12-17T21:18:00.123Z,95439.92
2022-12-17T21:20:26.514Z,95451.78
2022-12-17T21:22:52.850Z,95456.44
2022-12-17T21:25:19.244Z,95466.19
2022-12-17T21:27:45.585Z,95467.10
2022-12-17T21:30:13.487Z,95468.39
2022-12-17T21:32:38.315Z,95465.23
2022-12-17T21:35:04.699Z,95471.13
2022-12-17T21:37:31.050Z,95478.18
2022-12-17T21:39:59.907Z,95477.72
2022-12-17T21:42:23.782Z,95478.64
2022-12-17T21:44:50.165Z,95479.72
2022-12-17T21:47:16.513Z,95482.29
2022-12-17T21:49:42.897Z,95483.95
2022-12-17T21:52:11.428Z,95487.35
2022-12-17T21:54:37.846Z,95486.86
2022-12-17T21:57:04.181Z,95485.48
2022-12-17T21:59:30.571Z,95486.65
2022-12-17T22:01:57.085Z,95491.00
2022-12-17T22:04:23.432Z,95492.66
2022-12-17T22:06:55.292Z,95497.81
2022-12-17T22:09:29.819Z,95500.30
2022-12-17T22:11:42.520Z,95500.17
2022-12-17T22:14:11.597Z,95506.52
2022-12-17T22:16:35.361Z,95501.73
2022-12-17T22:19:01.670Z,95507.14
2022-12-17T22:21:29.050Z,95504.56
2022-12-17T22:23:55.487Z,95507.14
2022-12-17T22:26:21.837Z,95510.88
2022-12-17T22:28:48.219Z,95510.79
2022-12-17T22:31:14.602Z,95514.91
2022-12-17T22:34:06.334Z,95510.45
2022-12-17T22:38:19.766Z,95510.00
2022-12-17T22:41:51.888Z,95512.95
2022-12-17T22:44:35.922Z,95510.83
2022-12-17T22:44:44.909Z,95517.17
2022-12-17T22:45:52.811Z,95518.71
2022-12-17T22:48:19.171Z,95520.25
2022-12-17T22:51:02.047Z,95521.99
2022-12-17T22:53:11.915Z,95518.38
2022-12-17T22:55:38.251Z,95527.77
2022-12-17T22:58:04.638Z,95532.83
2022-12-17T23:00:30.980Z,95532.70
2022-12-17T23:02:57.523Z,95535.19
2022-12-17T23:05:23.716Z,95536.81
2022-12-17T23:07:50.105Z,95538.47
2022-12-17T23:10:16.488Z,95542.80
2022-12-17T23:12:42.875Z,95543.53
2022-12-17T23:15:09.222Z,95546.91
2022-12-17T23:17:35.638Z,95553.72
2022-12-17T23:20:01.950Z,95556.20
2022-12-17T23:22:28.347Z,95559.61
2022-12-17T23:24:54.690Z,95567.58
2022-12-17T23:27:21.110Z,95571.08
2022-12-17T23:29:47.450Z,95573.91
2022-12-17T23:32:13.837Z,95575.56
2022-12-17T23:34:40.180Z,95577.77
2022-12-17T23:37:06.563Z,95575.19
2022-12-17T23:39:33.050Z,95576.84
2022-12-17T23:41:59.305Z,95580.13
2022-12-17T23:44:25.652Z,95578.50
2022-12-17T23:46:52.078Z,95589.52
2022-12-17T23:49:18.375Z,95596.79
2022-12-17T23:51:44.768Z,95595.71
2022-12-17T23:54:11.120Z,95599.20
2022-12-17T23:56:40.802Z,95603.19
2022-12-17T23:59:04.912Z,95606.23
